| Date | Time | Temp. (oF) | Dew Point (oF) | Rel. Hum. (%) | Press. (in.) | Wind Dir. | Wind Speed (mph) | Hourly Rainfall (in.) |
|
|---|---|---|---|---|---|---|---|---|---|
| 1 | 05/07 | 00:00 | 47 | 36 | 68 | 30.11 | NNE | 2 | 0.00 |
| 2 | 05/06 | 23:00 | 48 | 36 | 64 | 30.12 | NNE | 3 | 0.00 |
| 3 | 05/06 | 22:00 | 50 | 37 | 62 | 30.14 | NNE | 7 | 0.00 |
| 4 | 05/06 | 21:00 | 51 | 37 | 60 | 30.14 | N | 3 | 0.00 |
| 5 | 05/06 | 20:00 | 52 | 36 | 56 | 30.15 | NE | 4 | 0.00 |
| 6 | 05/06 | 19:00 | 53 | 37 | 55 | 30.17 | NNE | 12 | 0.00 |
| 7 | 05/06 | 18:00 | 54 | 36 | 52 | 30.18 | NE | 8 | 0.00 |
| 8 | 05/06 | 17:00 | 54 | 38 | 56 | 30.19 | NE | 7 | 0.00 |
| 9 | 05/06 | 16:00 | 54 | 38 | 55 | 30.19 | ENE | 6 | 0.00 |
| 10 | 05/06 | 15:00 | 54 | 36 | 52 | 30.23 | ENE | 6 | 0.00 |
| 11 | 05/06 | 14:00 | 53 | 34 | 50 | 30.26 | ESE | 7 | 0.00 |
| 12 | 05/06 | 13:00 | 52 | 36 | 56 | 30.31 | NE | 9 | 0.00 |
| 13 | 05/06 | 12:00 | 52 | 37 | 58 | 30.33 | N | 5 | 0.00 |
| 14 | 05/06 | 11:00 | 50 | 39 | 68 | 30.34 | NE | 3 | 0.00 |
| 15 | 05/06 | 10:00 | 49 | 44 | 83 | 30.35 | ESE | 3 | 0.00 |
| 16 | 05/06 | 09:00 | 47 | 43 | 89 | 30.35 | ENE | 6 | 0.00 |
| 17 | 05/06 | 08:00 | 45 | 43 | 93 | 30.35 | NE | 1 | 0.00 |
| 18 | 05/06 | 07:00 | 43 | 41 | 95 | 30.36 | NNE | 4 | 0.00 |
| 19 | 05/06 | 06:00 | 43 | 41 | 95 | 30.37 | NE | 0 | 0.00 |
| 20 | 05/06 | 05:00 | 44 | 42 | 94 | 30.37 | N | 0 | 0.00 |
| 21 | 05/06 | 04:00 | 44 | 41 | 91 | 30.38 | NE | 1 | 0.00 |
| 22 | 05/06 | 03:00 | 45 | 41 | 86 | 30.38 | ENE | 2 | 0.00 |
| 23 | 05/06 | 02:00 | 47 | 41 | 82 | 30.40 | E | 0 | 0.00 |
| 24 | 05/06 | 01:00 | 48 | 41 | 77 | 30.42 | NE | 1 | 0.00 |